Time;durP1;ratioP1;P1;durP2;ratioP2;P2;SDS_P1;SDS_P2;PMS_P1;PMS_P2;Temp;Humidity;BMP_temperature;BMP_pressure;BME280_temperature;BME280_humidity;BME280_pressure;Samples;Min_cycle;Max_cycle;Signal;HPM_P1;HPM_P2
2023/06/27 00:00:40;;;;;;;3.67;1.53;;;20.20;58.20;;;;;;5098362;28;20521;-74
2023/06/27 00:03:07;;;;;;;2.30;1.40;;;20.20;58.20;;;;;;5098200;28;20490;-73
2023/06/27 00:05:36;;;;;;;2.13;1.20;;;20.20;58.50;;;;;;5099517;28;20443;-74
2023/06/27 00:08:03;;;;;;;2.03;1.63;;;20.20;58.60;;;;;;5102922;28;20451;-74
2023/06/27 00:10:30;;;;;;;1.80;1.40;;;20.10;58.70;;;;;;5102531;28;20443;-74
2023/06/27 00:12:56;;;;;;;5.30;1.50;;;20.10;58.70;;;;;;5100847;28;20467;-73
2023/06/27 00:15:23;;;;;;;2.13;1.47;;;20.00;58.80;;;;;;5101094;28;20455;-74
2023/06/27 00:17:51;;;;;;;1.30;1.20;;;20.00;59.10;;;;;;5101506;28;20463;-74
2023/06/27 00:20:18;;;;;;;2.37;1.60;;;20.00;59.10;;;;;;5100203;28;20458;-74
2023/06/27 00:22:48;;;;;;;1.73;1.60;;;20.00;59.50;;;;;;5099113;28;20502;-74
2023/06/27 00:25:15;;;;;;;2.10;1.47;;;20.00;59.30;;;;;;5099603;28;20447;-74
2023/06/27 00:27:42;;;;;;;3.53;2.00;;;20.00;59.70;;;;;;5098315;28;20452;-74
2023/06/27 00:30:09;;;;;;;1.53;1.43;;;20.00;59.70;;;;;;5098267;28;20447;-74
2023/06/27 00:32:36;;;;;;;2.57;1.87;;;20.00;59.80;;;;;;5095695;28;20475;-73
2023/06/27 00:35:03;;;;;;;3.63;1.60;;;20.00;59.90;;;;;;5097357;28;20462;-73
2023/06/27 00:37:30;;;;;;;1.67;1.57;;;20.00;60.40;;;;;;5096838;28;20474;-73
2023/06/27 00:39:58;;;;;;;4.40;1.43;;;20.00;60.20;;;;;;5097294;28;20459;-74
2023/06/27 00:42:26;;;;;;;2.70;1.83;;;20.00;60.10;;;;;;5095548;28;20487;-74
2023/06/27 00:44:53;;;;;;;6.00;1.80;;;20.00;60.30;;;;;;5095142;28;20542;-74
2023/06/27 00:47:20;;;;;;;1.53;1.43;;;20.00;60.10;;;;;;5096040;28;20443;-74
2023/06/27 00:49:47;;;;;;;2.43;2.07;;;19.90;60.20;;;;;;5095998;28;20949;-74
2023/06/27 00:52:14;;;;;;;3.37;1.70;;;19.90;60.50;;;;;;5096472;28;20463;-73
2023/06/27 00:54:41;;;;;;;4.37;2.00;;;19.90;60.60;;;;;;5096082;28;20590;-74
2023/06/27 00:57:10;;;;;;;3.00;2.17;;;19.90;61.50;;;;;;5095891;28;20444;-74
2023/06/27 00:59:38;;;;;;;2.27;1.90;;;19.80;60.50;;;;;;5095948;28;20530;-74
2023/06/27 01:02:05;;;;;;;4.50;1.87;;;19.80;60.80;;;;;;5096112;28;20490;-73
2023/06/27 01:04:32;;;;;;;2.30;1.50;;;19.80;61.30;;;;;;5096039;28;20451;-74
2023/06/27 01:07:09;;;;;;;1.87;1.60;;;19.80;61.50;;;;;;5095451;28;20487;-74
2023/06/27 01:09:42;;;;;;;2.47;2.20;;;19.70;61.70;;;;;;5095297;28;20442;-74
2023/06/27 01:12:18;;;;;;;2.90;1.90;;;19.70;62.00;;;;;;5095469;28;20463;-73
2023/06/27 01:14:47;;;;;;;1.40;1.30;;;19.70;62.30;;;;;;5095064;28;20446;-74
2023/06/27 01:17:15;;;;;;;3.07;2.30;;;19.70;62.30;;;;;;5095106;28;20893;-74
2023/06/27 01:19:44;;;;;;;3.30;1.90;;;19.70;62.50;;;;;;5094479;28;20475;-74
2023/06/27 01:22:16;;;;;;;2.20;2.00;;;19.60;62.20;;;;;;5095257;28;20483;-74
2023/06/27 01:24:44;;;;;;;3.80;2.20;;;19.70;62.50;;;;;;5094644;28;20432;-73
2023/06/27 01:27:12;;;;;;;2.03;1.40;;;19.70;62.70;;;;;;5094545;28;20455;-74
2023/06/27 01:29:40;;;;;;;5.13;1.73;;;19.60;62.70;;;;;;5093531;28;20543;-73
2023/06/27 01:32:12;;;;;;;6.40;2.33;;;19.60;63.10;;;;;;5094819;28;20486;-73
2023/06/27 01:34:49;;;;;;;5.10;1.70;;;19.60;62.80;;;;;;5094546;28;20435;-73
2023/06/27 01:37:22;;;;;;;5.93;2.30;;;19.60;62.30;;;;;;5093410;28;20972;-71
2023/06/27 01:39:57;;;;;;;2.93;1.50;;;19.60;63.70;;;;;;5094337;28;20457;-73
2023/06/27 01:42:28;;;;;;;5.43;2.83;;;19.60;63.50;;;;;;5096876;28;20494;-74
2023/06/27 01:44:57;;;;;;;4.90;2.17;;;19.60;63.60;;;;;;5099007;28;20432;-74
2023/06/27 01:47:25;;;;;;;9.27;2.53;;;19.60;63.10;;;;;;5105945;28;20455;-73
2023/06/27 01:49:53;;;;;;;6.07;2.63;;;19.60;62.00;;;;;;5109044;28;20539;-74
2023/06/27 01:52:20;;;;;;;11.70;2.50;;;19.60;62.10;;;;;;5103323;28;20464;-72
2023/06/27 01:54:47;;;;;;;9.97;2.87;;;19.60;61.50;;;;;;5100811;28;20447;-78
2023/06/27 01:57:15;;;;;;;5.93;2.37;;;19.60;62.30;;;;;;5098475;28;20446;-74
2023/06/27 01:59:42;;;;;;;9.17;3.10;;;19.60;62.80;;;;;;5098731;28;20447;-74
2023/06/27 02:02:09;;;;;;;6.63;2.80;;;19.60;63.60;;;;;;5097808;28;20480;-73
2023/06/27 02:04:36;;;;;;;4.70;2.20;;;19.60;63.70;;;;;;5096153;28;20516;-74
2023/06/27 02:07:02;;;;;;;6.30;2.53;;;19.50;64.20;;;;;;5094960;28;20447;-73
2023/06/27 02:09:29;;;;;;;4.80;2.43;;;19.50;64.70;;;;;;5104749;28;20440;-74
2023/06/27 02:11:56;;;;;;;10.87;2.70;;;19.50;64.70;;;;;;5100429;28;20868;-72
2023/06/27 02:14:24;;;;;;;4.93;2.50;;;19.50;64.90;;;;;;5096585;28;20447;-74
2023/06/27 02:16:51;;;;;;;7.23;2.57;;;19.50;65.40;;;;;;5094337;28;20454;-74
2023/06/27 02:19:18;;;;;;;8.57;2.50;;;19.50;65.70;;;;;;5093555;28;20458;-74
2023/06/27 02:21:45;;;;;;;5.30;2.50;;;19.40;65.60;;;;;;5094082;28;20455;-73
2023/06/27 02:24:12;;;;;;;12.30;2.97;;;19.40;65.00;;;;;;5093815;28;20457;-73
2023/06/27 02:26:39;;;;;;;5.00;2.50;;;19.40;65.60;;;;;;5093799;28;20450;-73
2023/06/27 02:29:05;;;;;;;7.97;2.63;;;19.40;65.70;;;;;;5093572;28;20451;-74
2023/06/27 02:31:33;;;;;;;8.40;2.60;;;19.40;65.70;;;;;;5093316;28;20955;-74
2023/06/27 02:34:01;;;;;;;9.33;2.50;;;19.40;66.00;;;;;;5093660;28;20534;-75
2023/06/27 02:36:28;;;;;;;8.70;2.60;;;19.40;65.60;;;;;;5093575;28;20505;-74
2023/06/27 02:38:55;;;;;;;9.30;2.87;;;19.30;65.40;;;;;;5092318;28;20451;-73
2023/06/27 02:41:22;;;;;;;5.03;2.53;;;19.30;65.30;;;;;;5093474;28;20443;-74
2023/06/27 02:43:49;;;;;;;11.73;3.67;;;19.30;65.20;;;;;;5093642;28;20519;-73
2023/06/27 02:46:17;;;;;;;8.73;2.87;;;19.30;65.40;;;;;;5093706;28;20447;-74
2023/06/27 02:48:46;;;;;;;7.37;3.07;;;19.30;65.30;;;;;;5093411;28;20450;-73
2023/06/27 02:51:13;;;;;;;9.93;3.30;;;19.30;65.10;;;;;;5092178;28;20526;-74
2023/06/27 02:53:40;;;;;;;9.20;3.33;;;19.20;65.00;;;;;;5092912;28;20976;-73
2023/06/27 02:56:07;;;;;;;5.70;2.57;;;19.20;65.30;;;;;;5093334;28;20505;-74
2023/06/27 02:58:35;;;;;;;6.50;3.07;;;19.30;65.20;;;;;;5092099;28;20447;-74
2023/06/27 03:01:03;;;;;;;10.30;3.70;;;19.30;65.30;;;;;;5093279;28;20816;-74
2023/06/27 03:03:30;;;;;;;10.90;3.83;;;19.20;65.30;;;;;;5092737;28;20515;-73
2023/06/27 03:06:02;;;;;;;8.20;2.80;;;19.20;65.10;;;;;;5094080;28;20465;-73
2023/06/27 03:08:29;;;;;;;6.50;2.30;;;19.20;65.30;;;;;;5097088;28;20515;-74
2023/06/27 03:10:56;;;;;;;7.93;2.80;;;19.20;65.60;;;;;;5096721;28;20459;-73
2023/06/27 03:13:23;;;;;;;6.17;2.70;;;19.20;65.80;;;;;;5095593;28;20514;-73
2023/06/27 03:15:49;;;;;;;9.80;2.67;;;19.20;66.10;;;;;;5097097;28;20454;-74
2023/06/27 03:18:16;;;;;;;6.50;2.60;;;19.20;66.00;;;;;;5096451;28;20996;-74
2023/06/27 03:20:43;;;;;;;5.73;3.00;;;19.20;67.00;;;;;;5097193;28;20440;-73
2023/06/27 03:23:12;;;;;;;7.30;3.20;;;19.30;67.70;;;;;;5097047;28;20483;-73
2023/06/27 03:25:39;;;;;;;9.67;3.53;;;19.20;68.00;;;;;;5098134;28;20455;-74
2023/06/27 03:28:06;;;;;;;6.40;3.20;;;19.30;68.30;;;;;;5102238;28;20440;-74
2023/06/27 03:30:33;;;;;;;9.00;3.20;;;19.20;68.20;;;;;;5104078;28;20504;-74
2023/06/27 03:33:00;;;;;;;5.60;2.20;;;19.20;67.80;;;;;;5103359;28;20456;-73
2023/06/27 03:35:27;;;;;;;7.03;2.80;;;19.10;67.20;;;;;;5103162;28;20798;-73
2023/06/27 03:37:53;;;;;;;7.33;2.70;;;19.00;67.80;;;;;;5096814;28;20444;-73
2023/06/27 03:40:22;;;;;;;6.67;2.23;;;18.90;68.00;;;;;;5096680;28;20448;-73
2023/06/27 03:42:49;;;;;;;6.07;2.83;;;18.80;69.30;;;;;;5096667;28;20487;-73
2023/06/27 03:45:15;;;;;;;5.50;2.50;;;18.70;69.50;;;;;;5095088;28;20851;-73
2023/06/27 03:47:42;;;;;;;6.40;2.73;;;18.60;70.20;;;;;;5096320;28;20455;-73
2023/06/27 03:50:10;;;;;;;7.37;3.37;;;18.60;71.00;;;;;;5096003;28;20948;-73
2023/06/27 03:52:37;;;;;;;4.73;2.30;;;18.60;71.00;;;;;;5095687;28;20467;-72
2023/06/27 03:55:04;;;;;;;8.40;2.67;;;18.50;72.10;;;;;;5095795;28;20985;-73
2023/06/27 03:57:32;;;;;;;7.10;2.67;;;18.50;72.80;;;;;;5095948;28;20440;-73
2023/06/27 03:59:59;;;;;;;7.83;2.93;;;18.60;72.80;;;;;;5095947;28;20868;-73
2023/06/27 04:02:27;;;;;;;11.53;3.23;;;18.60;72.60;;;;;;5095705;28;20546;-73
2023/06/27 04:04:53;;;;;;;6.47;3.27;;;18.60;72.80;;;;;;5094784;28;20483;-73
2023/06/27 04:07:20;;;;;;;7.53;3.10;;;18.60;72.90;;;;;;5103712;28;20446;-73
2023/06/27 04:09:47;;;;;;;13.83;3.50;;;18.60;72.60;;;;;;5101573;28;20448;-74
2023/06/27 04:12:14;;;;;;;7.27;2.70;;;18.60;72.80;;;;;;5101755;28;20475;-73
2023/06/27 04:14:42;;;;;;;5.20;2.70;;;18.60;73.00;;;;;;5098130;28;20451;-73
2023/06/27 04:17:09;;;;;;;8.87;3.07;;;18.60;73.70;;;;;;5099010;28;20447;-73
2023/06/27 04:19:36;;;;;;;8.30;3.07;;;18.70;73.90;;;;;;5095536;28;20459;-73
2023/06/27 04:22:03;;;;;;;9.20;3.00;;;18.70;73.70;;;;;;5097233;28;20475;-72
2023/06/27 04:24:33;;;;;;;10.40;3.40;;;18.70;73.40;;;;;;5096929;28;20479;-72
2023/06/27 04:27:00;;;;;;;4.93;2.30;;;18.60;73.40;;;;;;5096289;28;20447;-73
2023/06/27 04:29:27;;;;;;;7.10;2.90;;;18.60;73.60;;;;;;5095977;28;20951;-73
2023/06/27 04:31:55;;;;;;;9.40;3.13;;;18.60;74.50;;;;;;5096236;28;20478;-73
2023/06/27 04:34:22;;;;;;;8.77;2.50;;;18.60;74.90;;;;;;5096479;28;20543;-72
2023/06/27 04:36:51;;;;;;;6.67;3.40;;;18.60;74.20;;;;;;5096250;28;20444;-72
2023/06/27 04:39:17;;;;;;;13.87;3.03;;;18.60;74.60;;;;;;5095790;28;20491;-73
2023/06/27 04:41:44;;;;;;;8.30;3.60;;;18.60;74.60;;;;;;5096156;28;20960;-73
2023/06/27 04:44:11;;;;;;;11.87;2.53;;;18.50;74.70;;;;;;5095556;28;20498;-73
2023/06/27 04:46:38;;;;;;;5.80;2.60;;;18.60;75.10;;;;;;5095658;28;20466;-73
2023/06/27 04:49:06;;;;;;;10.03;3.13;;;18.60;75.80;;;;;;5095483;28;20439;-72
2023/06/27 04:51:33;;;;;;;6.50;2.80;;;18.60;75.00;;;;;;5094284;28;20475;-73
2023/06/27 04:54:00;;;;;;;8.70;3.47;;;18.70;75.50;;;;;;5095127;28;20447;-72
2023/06/27 04:56:27;;;;;;;10.87;3.90;;;18.70;75.80;;;;;;5094924;28;20447;-73
2023/06/27 04:58:54;;;;;;;11.40;3.10;;;18.70;75.60;;;;;;5095556;28;20448;-73
2023/06/27 05:01:21;;;;;;;7.10;2.73;;;18.70;75.50;;;;;;5094598;28;20795;-72
2023/06/27 05:03:47;;;;;;;7.73;2.80;;;18.70;74.50;;;;;;5096663;28;20480;-72
2023/06/27 05:06:16;;;;;;;5.73;3.07;;;18.60;75.20;;;;;;5107360;28;20444;-72
2023/06/27 05:08:44;;;;;;;15.80;2.77;;;18.70;75.60;;;;;;5098641;28;20448;-72
2023/06/27 05:11:11;;;;;;;10.73;2.97;;;18.70;75.40;;;;;;5096031;28;20998;-72
2023/06/27 05:13:37;;;;;;;6.80;2.60;;;18.70;75.00;;;;;;5094914;28;20483;-72
2023/06/27 05:16:05;;;;;;;10.90;4.00;;;18.60;75.30;;;;;;5094558;28;20443;-72
2023/06/27 05:18:31;;;;;;;10.50;3.80;;;18.70;76.10;;;;;;5094271;28;20451;-72
2023/06/27 05:20:58;;;;;;;8.90;3.30;;;18.60;75.80;;;;;;5094487;28;20521;-72
2023/06/27 05:23:26;;;;;;;9.70;3.13;;;18.50;75.90;;;;;;5094303;28;20486;-72
2023/06/27 05:25:53;;;;;;;6.03;3.23;;;18.50;76.00;;;;;;5093291;28;20444;-72
2023/06/27 05:28:20;;;;;;;8.77;3.10;;;18.50;76.30;;;;;;5093867;28;20455;-72
2023/06/27 05:30:46;;;;;;;13.23;3.47;;;18.40;76.80;;;;;;5092969;28;20816;-72
2023/06/27 05:33:13;;;;;;;9.70;3.63;;;18.40;78.00;;;;;;5094146;28;20467;-72
2023/06/27 05:35:40;;;;;;;11.40;2.93;;;18.50;78.40;;;;;;5094063;28;20440;-72
2023/06/27 05:38:07;;;;;;;7.30;3.17;;;18.60;78.20;;;;;;5093937;28;20444;-72
2023/06/27 05:40:35;;;;;;;7.47;3.10;;;18.70;78.60;;;;;;5094186;28;20501;-72
2023/06/27 05:43:02;;;;;;;7.13;2.80;;;18.70;76.70;;;;;;5094243;28;20538;-72
2023/06/27 05:45:29;;;;;;;15.60;2.90;;;18.70;76.90;;;;;;5093918;28;20570;-72
2023/06/27 05:47:55;;;;;;;9.53;3.23;;;18.70;77.20;;;;;;5094067;28;20470;-72
2023/06/27 05:50:22;;;;;;;10.73;4.30;;;18.70;76.80;;;;;;5093969;28;20486;-72
2023/06/27 05:52:49;;;;;;;10.70;3.00;;;18.70;76.70;;;;;;5093347;28;20475;-72
2023/06/27 05:55:16;;;;;;;9.13;3.60;;;18.60;77.10;;;;;;5092453;28;20926;-73
2023/06/27 05:57:44;;;;;;;7.07;2.40;;;18.60;77.30;;;;;;5093475;28;20448;-72
2023/06/27 06:00:13;;;;;;;11.63;3.43;;;18.60;77.80;;;;;;5093832;28;20451;-72
2023/06/27 06:02:43;;;;;;;6.30;2.80;;;18.60;77.60;;;;;;5094092;28;20468;-72
2023/06/27 06:05:11;;;;;;;8.63;3.40;;;18.60;77.30;;;;;;5093778;28;20986;-72
2023/06/27 06:07:42;;;;;;;6.67;2.97;;;18.70;78.80;;;;;;5093650;28;20448;-73
2023/06/27 06:10:10;;;;;;;5.70;3.10;;;18.80;78.40;;;;;;5093530;28;20424;-72
2023/06/27 06:12:37;;;;;;;5.60;3.40;;;18.80;77.70;;;;;;5093590;28;20822;-72
2023/06/27 06:15:08;;;;;;;9.30;2.67;;;18.90;77.60;;;;;;5093641;28;20452;-72
2023/06/27 06:17:35;;;;;;;8.17;2.80;;;19.00;77.90;;;;;;5093331;28;20439;-73
2023/06/27 06:20:02;;;;;;;9.20;3.63;;;19.10;77.20;;;;;;5093608;28;20428;-72
2023/06/27 06:22:29;;;;;;;5.77;3.00;;;19.10;77.80;;;;;;5092914;28;21049;-71
2023/06/27 06:24:56;;;;;;;9.10;3.00;;;19.20;77.30;;;;;;5093046;28;20482;-73
2023/06/27 06:27:23;;;;;;;10.10;3.20;;;19.30;78.00;;;;;;5104456;28;20448;-72
2023/06/27 06:29:50;;;;;;;11.70;3.50;;;19.20;78.10;;;;;;5098836;28;20443;-72
2023/06/27 06:32:18;;;;;;;5.90;3.07;;;19.30;78.30;;;;;;5095802;28;20517;-72
2023/06/27 06:34:45;;;;;;;11.87;3.97;;;19.40;78.00;;;;;;5094894;28;20446;-73
2023/06/27 06:37:12;;;;;;;8.17;3.30;;;19.60;77.90;;;;;;5094294;28;20447;-73
2023/06/27 06:39:38;;;;;;;9.50;3.80;;;19.70;77.40;;;;;;5093850;28;20446;-73
2023/06/27 06:42:05;;;;;;;12.17;3.70;;;19.80;76.40;;;;;;5096669;28;20460;-72
2023/06/27 06:44:32;;;;;;;11.43;3.47;;;19.80;75.60;;;;;;5097314;28;20511;-73
2023/06/27 06:46:59;;;;;;;9.77;3.30;;;19.90;76.40;;;;;;5097519;28;20632;-73
2023/06/27 06:49:27;;;;;;;9.90;2.93;;;20.00;76.40;;;;;;5097561;28;20448;-73
2023/06/27 06:51:54;;;;;;;10.23;4.10;;;20.10;75.80;;;;;;5097347;28;20467;-72
2023/06/27 06:54:20;;;;;;;10.70;3.33;;;20.20;75.80;;;;;;5097454;28;20444;-73
2023/06/27 06:56:49;;;;;;;6.70;3.30;;;20.40;74.70;;;;;;5096167;28;20454;-72
2023/06/27 06:59:15;;;;;;;10.63;3.33;;;20.50;74.60;;;;;;5097068;28;20459;-73
2023/06/27 07:01:42;;;;;;;8.43;3.13;;;20.60;74.40;;;;;;5097157;28;20440;-72
2023/06/27 07:04:09;;;;;;;6.60;2.90;;;20.70;74.80;;;;;;5097131;28;20506;-73
2023/06/27 07:06:37;;;;;;;10.73;3.57;;;20.80;73.80;;;;;;5097060;28;20448;-73
2023/06/27 07:09:04;;;;;;;16.20;3.30;;;21.00;73.30;;;;;;5097191;28;20447;-73
2023/06/27 07:11:31;;;;;;;9.10;3.33;;;21.00;73.20;;;;;;5097138;28;20452;-73
2023/06/27 07:13:58;;;;;;;10.47;3.00;;;21.10;72.30;;;;;;5096526;28;20475;-72
2023/06/27 07:16:25;;;;;;;10.13;3.20;;;21.30;73.90;;;;;;5096873;28;20443;-73
2023/06/27 07:18:52;;;;;;;10.93;2.67;;;21.40;72.80;;;;;;5096489;28;20967;-73
2023/06/27 07:21:19;;;;;;;8.47;2.90;;;21.60;71.70;;;;;;5097075;28;20448;-73
2023/06/27 07:23:47;;;;;;;7.47;3.00;;;21.70;70.30;;;;;;5096486;28;20487;-73
2023/06/27 07:26:14;;;;;;;11.63;2.80;;;21.80;69.80;;;;;;5096801;28;20440;-73
2023/06/27 07:28:41;;;;;;;9.13;3.03;;;21.90;70.40;;;;;;5097025;28;20457;-73
2023/06/27 07:31:07;;;;;;;10.13;3.43;;;22.00;68.80;;;;;;5097550;28;20451;-74
2023/06/27 07:33:36;;;;;;;11.43;3.63;;;22.10;69.30;;;;;;5097176;28;20467;-73
2023/06/27 07:36:02;;;;;;;12.67;3.27;;;22.10;67.70;;;;;;5098871;28;20439;-74
2023/06/27 07:38:31;;;;;;;8.50;2.83;;;22.20;68.20;;;;;;5099362;28;20452;-74
2023/06/27 07:40:59;;;;;;;11.33;4.13;;;22.20;68.90;;;;;;5100308;28;20444;-73
2023/06/27 07:43:26;;;;;;;6.90;3.00;;;22.40;69.80;;;;;;5105192;28;20474;-73
2023/06/27 07:45:52;;;;;;;7.23;3.10;;;22.50;68.80;;;;;;5103790;28;20451;-73
2023/06/27 07:48:19;;;;;;;13.87;3.63;;;22.70;67.30;;;;;;5102937;28;20859;-73
2023/06/27 07:50:47;;;;;;;8.60;2.87;;;22.80;67.00;;;;;;5103368;28;20514;-74
2023/06/27 07:53:14;;;;;;;7.07;3.10;;;22.90;65.50;;;;;;5101851;28;20463;-73
2023/06/27 07:55:42;;;;;;;8.90;2.50;;;23.00;66.00;;;;;;5101555;28;20435;-73
2023/06/27 07:58:10;;;;;;;4.67;2.63;;;23.00;64.20;;;;;;5110862;28;20863;-74
2023/06/27 08:00:38;;;;;;;5.87;2.10;;;23.00;64.30;;;;;;5105680;28;20507;-74
2023/06/27 08:03:05;;;;;;;10.07;3.07;;;23.20;63.10;;;;;;5102094;28;20471;-73
2023/06/27 08:05:34;;;;;;;8.40;3.20;;;23.30;63.20;;;;;;5097342;28;20501;-74
2023/06/27 08:08:01;;;;;;;8.23;3.10;;;23.40;63.30;;;;;;5098020;28;20458;-74
2023/06/27 08:10:28;;;;;;;6.50;2.20;;;23.50;61.60;;;;;;5098468;28;20448;-74
2023/06/27 08:12:55;;;;;;;6.03;2.60;;;23.60;61.10;;;;;;5096712;28;20475;-74
2023/06/27 08:15:23;;;;;;;5.30;2.33;;;23.60;60.90;;;;;;5097227;28;20448;-73
2023/06/27 08:17:50;;;;;;;9.00;2.97;;;23.60;61.50;;;;;;5096590;28;20458;-73
2023/06/27 08:20:17;;;;;;;9.30;3.23;;;23.70;60.40;;;;;;5096971;28;20523;-73
2023/06/27 08:22:44;;;;;;;5.30;2.80;;;23.70;60.70;;;;;;5096654;28;20566;-73
2023/06/27 08:25:11;;;;;;;6.83;2.70;;;23.80;59.20;;;;;;5096960;28;20476;-74
2023/06/27 08:27:38;;;;;;;8.10;2.20;;;23.80;59.10;;;;;;5096237;28;20455;-73
2023/06/27 08:30:07;;;;;;;6.40;2.10;;;23.90;58.20;;;;;;5095809;28;20820;-74
2023/06/27 08:32:35;;;;;;;4.33;2.53;;;24.10;58.70;;;;;;5095921;28;20464;-73
2023/06/27 08:35:05;;;;;;;7.50;2.60;;;24.30;58.60;;;;;;5095584;28;20440;-73
2023/06/27 08:37:32;;;;;;;6.07;2.70;;;24.50;57.60;;;;;;5095920;28;20530;-74
2023/06/27 08:39:58;;;;;;;7.70;2.70;;;24.70;55.60;;;;;;5096867;28;20443;-74
2023/06/27 08:42:27;;;;;;;7.60;2.77;;;24.80;56.10;;;;;;5104322;28;20450;-74
2023/06/27 08:44:54;;;;;;;6.00;2.20;;;24.90;55.20;;;;;;5101922;28;20503;-73
2023/06/27 08:47:24;;;;;;;6.80;3.10;;;24.90;54.50;;;;;;5101010;28;20535;-74
2023/06/27 08:49:57;;;;;;;4.93;2.40;;;25.00;55.40;;;;;;5098961;28;20456;-74
2023/06/27 08:52:25;;;;;;;5.00;2.10;;;25.20;54.60;;;;;;5097027;28;20474;-73
2023/06/27 08:54:54;;;;;;;7.17;2.63;;;25.30;54.80;;;;;;5096096;28;20444;-74
2023/06/27 08:57:30;;;;;;;6.00;2.73;;;25.40;53.70;;;;;;5095860;28;20543;-74
2023/06/27 08:59:58;;;;;;;8.70;2.70;;;25.50;54.00;;;;;;5095649;28;20428;-72
2023/06/27 09:02:27;;;;;;;10.10;3.27;;;25.50;53.60;;;;;;5096369;28;20475;-74
2023/06/27 09:04:59;;;;;;;14.80;2.87;;;25.60;54.10;;;;;;5094310;28;20574;-75
2023/06/27 09:07:26;;;;;;;8.07;2.60;;;25.70;53.50;;;;;;5094353;28;20463;-75
2023/06/27 09:09:53;;;;;;;4.67;2.30;;;25.70;52.80;;;;;;5095184;28;20451;-77
2023/06/27 09:12:20;;;;;;;6.90;2.67;;;25.80;52.30;;;;;;5095215;28;20470;-74
2023/06/27 09:14:47;;;;;;;6.30;2.70;;;25.80;52.30;;;;;;5094663;28;20440;-74
2023/06/27 09:17:16;;;;;;;7.10;2.27;;;25.80;51.70;;;;;;5093097;28;20457;-74
2023/06/27 09:19:42;;;;;;;9.50;2.60;;;25.90;52.50;;;;;;5093133;28;20810;-74
2023/06/27 09:22:11;;;;;;;6.57;2.40;;;26.20;51.40;;;;;;5094696;28;20471;-73
2023/06/27 09:24:40;;;;;;;4.47;2.10;;;26.20;50.70;;;;;;5094302;28;20835;-74
2023/06/27 09:27:07;;;;;;;6.57;2.40;;;26.30;49.80;;;;;;5094289;28;20928;-75
2023/06/27 09:29:37;;;;;;;6.43;2.20;;;26.30;50.00;;;;;;5094721;28;20519;-74
2023/06/27 09:32:07;;;;;;;6.60;2.40;;;26.30;50.50;;;;;;5094596;28;20479;-73
2023/06/27 09:34:35;;;;;;;6.50;2.20;;;26.30;50.10;;;;;;5094327;28;20447;-75
2023/06/27 09:37:03;;;;;;;5.77;2.33;;;26.00;50.00;;;;;;5094586;28;20479;-73
2023/06/27 09:39:31;;;;;;;7.40;2.50;;;25.90;50.70;;;;;;5093284;28;20448;-73
2023/06/27 09:41:59;;;;;;;8.00;2.17;;;25.80;51.20;;;;;;5094810;28;20988;-73
2023/06/27 09:44:26;;;;;;;5.50;2.13;;;25.70;50.10;;;;;;5093766;28;21008;-74
2023/06/27 09:46:54;;;;;;;4.80;2.20;;;25.60;49.70;;;;;;5094740;28;20875;-74
2023/06/27 09:49:22;;;;;;;8.67;2.90;;;25.60;50.70;;;;;;5094551;28;21023;-74
2023/06/27 09:51:50;;;;;;;5.33;2.37;;;25.60;49.90;;;;;;5094700;28;20456;-73
2023/06/27 09:54:20;;;;;;;8.70;2.30;;;25.60;50.30;;;;;;5094962;28;20483;-72
2023/06/27 09:56:51;;;;;;;4.83;2.30;;;25.80;50.70;;;;;;5095176;28;20483;-71
2023/06/27 09:59:20;;;;;;;6.40;2.50;;;25.90;50.20;;;;;;5094315;28;20432;-72
2023/06/27 10:01:49;;;;;;;5.73;2.30;;;26.00;49.10;;;;;;5094033;28;20468;-71
2023/06/27 10:04:16;;;;;;;5.47;2.20;;;26.10;48.50;;;;;;5093906;28;20454;-72
2023/06/27 10:06:43;;;;;;;4.50;1.90;;;26.10;50.00;;;;;;5093967;28;20494;-72
2023/06/27 10:09:10;;;;;;;11.00;2.60;;;26.30;50.00;;;;;;5092829;28;20448;-71
2023/06/27 10:11:37;;;;;;;9.40;2.60;;;26.50;49.40;;;;;;5094005;28;20451;-71
2023/06/27 10:14:05;;;;;;;7.70;2.30;;;26.80;47.20;;;;;;5093590;28;20959;-72
2023/06/27 10:16:33;;;;;;;6.27;2.60;;;27.20;48.30;;;;;;5093478;28;20850;-72
2023/06/27 10:19:02;;;;;;;7.13;2.20;;;27.40;45.00;;;;;;5093691;28;20456;-72
2023/06/27 10:21:30;;;;;;;5.60;2.10;;;27.70;45.50;;;;;;5093620;28;20454;-72
2023/06/27 10:24:01;;;;;;;5.53;2.37;;;28.00;44.40;;;;;;5093567;28;20463;-71
2023/06/27 10:26:29;;;;;;;4.60;2.00;;;28.10;43.70;;;;;;5093671;28;20495;-72
2023/06/27 10:28:56;;;;;;;4.93;2.40;;;28.50;43.20;;;;;;5093627;28;20452;-72
2023/06/27 10:31:44;;;;;;;6.43;2.30;;;28.60;41.50;;;;;;5093574;28;20497;-71
2023/06/27 10:34:17;;;;;;;4.60;1.80;;;28.40;41.80;;;;;;5093791;28;20927;-73
2023/06/27 10:36:58;;;;;;;8.00;2.17;;;28.20;40.70;;;;;;5093823;28;20424;-73
2023/06/27 10:39:29;;;;;;;2.20;1.30;;;28.20;41.10;;;;;;5093670;28;20439;-73
2023/06/27 10:42:01;;;;;;;5.97;2.17;;;28.10;41.60;;;;;;5093362;28;20468;-72
2023/06/27 10:44:29;;;;;;;5.37;2.10;;;28.10;39.80;;;;;;5092993;28;20547;-73
2023/06/27 10:47:33;;;;;;;3.73;1.73;;;28.00;40.40;;;;;;5093362;28;20554;-73
2023/06/27 10:50:07;;;;;;;4.83;1.97;;;28.00;41.80;;;;;;5106820;28;20471;-72
2023/06/27 10:52:34;;;;;;;4.20;1.50;;;28.00;41.70;;;;;;5104064;28;20473;-72
2023/06/27 10:55:21;;;;;;;3.10;2.07;;;28.10;42.50;;;;;;5094694;28;20448;-73
2023/06/27 10:58:02;;;;;;;9.13;2.10;;;27.80;39.30;;;;;;5093255;28;20505;-72
2023/06/27 11:00:31;;;;;;;6.80;1.97;;;27.90;38.20;;;;;;5094041;28;20436;-74
2023/06/27 11:03:03;;;;;;;3.40;1.40;;;28.20;39.50;;;;;;5097069;28;20468;-72
2023/06/27 11:05:38;;;;;;;4.57;1.70;;;28.30;39.00;;;;;;5096156;28;21081;-73
2023/06/27 11:08:08;;;;;;;5.23;1.70;;;28.60;39.20;;;;;;5094694;28;20455;-73
2023/06/27 11:10:36;;;;;;;4.13;1.70;;;29.10;37.10;;;;;;5093568;28;20447;-73
2023/06/27 11:13:16;;;;;;;4.77;1.70;;;29.70;36.60;;;;;;5092083;28;20479;-73
2023/06/27 11:15:46;;;;;;;3.33;1.40;;;30.00;36.10;;;;;;5093936;28;20518;-73
2023/06/27 11:18:15;;;;;;;7.80;2.07;;;30.10;35.80;;;;;;5093320;28;20952;-72
2023/06/27 11:20:43;;;;;;;6.43;1.90;;;30.00;36.30;;;;;;5092415;28;20439;-73
2023/06/27 11:23:12;;;;;;;4.73;1.63;;;30.00;36.70;;;;;;5093194;28;20993;-72
2023/06/27 11:25:42;;;;;;;4.60;1.87;;;30.20;38.40;;;;;;5093642;28;20479;-73
2023/06/27 11:28:10;;;;;;;6.80;1.80;;;30.30;34.90;;;;;;5095800;28;20806;-73
2023/06/27 11:30:37;;;;;;;3.80;1.60;;;30.40;34.90;;;;;;5095393;28;20889;-73
2023/06/27 11:33:04;;;;;;;8.33;1.70;;;30.30;35.40;;;;;;5095595;28;20996;-72
2023/06/27 11:35:33;;;;;;;4.83;1.70;;;30.10;34.30;;;;;;5095201;28;20976;-73
2023/06/27 11:38:00;;;;;;;5.33;1.50;;;30.00;35.20;;;;;;5096600;28;20450;-73
2023/06/27 11:40:30;;;;;;;6.67;1.63;;;29.80;35.70;;;;;;5096489;28;20530;-70
2023/06/27 11:43:04;;;;;;;6.10;1.60;;;29.80;37.80;;;;;;5096618;28;20514;-72
2023/06/27 11:45:32;;;;;;;4.80;1.90;;;29.70;36.60;;;;;;5096423;28;20478;-73
2023/06/27 11:47:59;;;;;;;4.90;2.00;;;29.40;35.70;;;;;;5096385;28;20451;-73
2023/06/27 11:50:27;;;;;;;6.10;2.10;;;29.40;36.30;;;;;;5095166;28;20479;-72
2023/06/27 11:52:57;;;;;;;5.67;2.10;;;29.40;36.30;;;;;;5096439;28;20471;-72
2023/06/27 11:55:24;;;;;;;5.53;2.37;;;29.70;36.10;;;;;;5096555;28;20443;-73
2023/06/27 11:57:54;;;;;;;5.27;1.90;;;30.40;36.10;;;;;;5094837;28;20974;-73
2023/06/27 12:00:24;;;;;;;3.13;1.77;;;30.50;34.20;;;;;;5096098;28;20546;-73
2023/06/27 12:02:53;;;;;;;9.10;2.37;;;30.40;35.70;;;;;;5096100;28;20559;-72
2023/06/27 12:05:21;;;;;;;3.63;2.20;;;30.30;34.70;;;;;;5096059;28;20479;-73
2023/06/27 12:08:01;;;;;;;5.50;2.00;;;30.20;33.10;;;;;;5096098;28;20452;-73
2023/06/27 12:10:29;;;;;;;6.63;2.20;;;30.10;33.90;;;;;;5096210;28;20424;-73
2023/06/27 12:12:57;;;;;;;6.30;1.87;;;30.30;33.10;;;;;;5095972;28;20488;-72
2023/06/27 12:15:24;;;;;;;4.40;1.57;;;30.70;32.80;;;;;;5095631;28;20512;-73
2023/06/27 12:18:00;;;;;;;4.30;2.00;;;30.70;33.40;;;;;;5095456;28;20459;-74
2023/06/27 12:20:40;;;;;;;5.33;1.90;;;30.60;34.40;;;;;;5095772;28;20444;-73
2023/06/27 12:23:09;;;;;;;3.27;1.87;;;30.10;33.80;;;;;;5095577;28;20471;-72
2023/06/27 12:25:39;;;;;;;7.03;2.50;;;29.40;34.70;;;;;;5095802;28;20480;-73
2023/06/27 12:28:06;;;;;;;6.20;2.40;;;28.80;36.80;;;;;;5094517;28;20436;-72
2023/06/27 12:30:33;;;;;;;4.63;2.23;;;28.30;37.10;;;;;;5095497;28;20862;-72
2023/06/27 12:33:00;;;;;;;5.07;2.10;;;27.90;39.00;;;;;;5094305;28;20464;-72
2023/06/27 12:35:27;;;;;;;6.47;2.00;;;27.90;39.20;;;;;;5095255;28;20933;-73
2023/06/27 12:37:53;;;;;;;6.30;2.30;;;28.70;38.80;;;;;;5095671;28;20460;-73
2023/06/27 12:40:24;;;;;;;5.37;2.77;;;29.10;35.80;;;;;;5095261;28;20447;-72
2023/06/27 12:42:52;;;;;;;5.47;2.37;;;29.20;35.20;;;;;;5095162;28;21125;-72
2023/06/27 12:45:19;;;;;;;3.50;1.97;;;29.30;34.80;;;;;;5095158;28;21080;-73
2023/06/27 12:47:46;;;;;;;3.40;2.30;;;29.30;35.30;;;;;;5094625;28;20452;-72
2023/06/27 12:50:15;;;;;;;6.50;1.93;;;29.60;35.10;;;;;;5095982;28;20940;-73